GMFF

Saïss Airport

Fes, Morocco
METAR GMFF 220030Z 24009KT 9999 FEW013 SCT030 BKN100 11/09 Q1008 NOSIG
Observed Flight Rules
Feb-22 @ 00:30 UTC (4 hours ago) Visual Flight Rules
Wind Visibility Clouds
240° at 9 knots 10,000+ meters
  • Few at 1,300' AGL
  • Scattered at 3,000' AGL
  • Broken at 10,000' AGL
Temperatures Readings
Current 11°C / 52°F
Dewpoint 9°C / 48°F
Humidity 88%
Altimeter 29.76" Hg
Pressure 1008 hPa
Elevation 579
METAR GMFF 220030Z 24009KT 9999 FEW013 SCT030 BKN100 11/09 Q1008 NOSIG
Observed Flight Rules
Feb-22 @ 00:30 UTC
(4 hours ago)
VFR
Wind Visibility
240° at 9 knots 10,000+ meters
Clouds
  • Few at 1,300' AGL
  • Scattered at 3,000' AGL
  • Broken at 10,000' AGL
Temperature Dewpoint
11°C / 52°F 9°C / 48°F
Humidity Altimeter Pressure
88% 29.76" Hg 1008 hPa